sensor_id;sensor_type;location;lat;lon;timestamp;P1;durP1;ratioP1;P2;durP2;ratioP2
66085;SDS011;52868;49.758;9.586;2023-02-28T00:02:18;1.45;;;1.27;;
66085;SDS011;52868;49.758;9.586;2023-02-28T00:04:43;2.50;;;1.60;;
66085;SDS011;52868;49.758;9.586;2023-02-28T00:07:09;2.28;;;1.50;;
66085;SDS011;52868;49.758;9.586;2023-02-28T00:09:34;3.70;;;1.75;;
66085;SDS011;52868;49.758;9.586;2023-02-28T00:12:00;2.45;;;1.60;;
66085;SDS011;52868;49.758;9.586;2023-02-28T00:14:38;4.82;;;1.88;;
66085;SDS011;52868;49.758;9.586;2023-02-28T00:17:03;1.52;;;1.27;;
66085;SDS011;52868;49.758;9.586;2023-02-28T00:19:29;4.05;;;1.80;;
66085;SDS011;52868;49.758;9.586;2023-02-28T00:21:55;4.32;;;2.00;;
66085;SDS011;52868;49.758;9.586;2023-02-28T00:24:20;1.45;;;1.30;;
66085;SDS011;52868;49.758;9.586;2023-02-28T00:26:46;2.95;;;1.35;;
66085;SDS011;52868;49.758;9.586;2023-02-28T00:29:11;2.22;;;1.42;;
66085;SDS011;52868;49.758;9.586;2023-02-28T00:31:37;4.07;;;1.73;;
66085;SDS011;52868;49.758;9.586;2023-02-28T00:34:02;4.50;;;1.90;;
66085;SDS011;52868;49.758;9.586;2023-02-28T00:36:28;2.10;;;1.48;;
66085;SDS011;52868;49.758;9.586;2023-02-28T00:38:53;2.95;;;1.50;;
66085;SDS011;52868;49.758;9.586;2023-02-28T00:41:19;4.10;;;1.73;;
66085;SDS011;52868;49.758;9.586;2023-02-28T00:43:45;4.10;;;1.67;;
66085;SDS011;52868;49.758;9.586;2023-02-28T00:46:10;3.13;;;1.70;;
66085;SDS011;52868;49.758;9.586;2023-02-28T00:48:36;2.05;;;1.45;;
66085;SDS011;52868;49.758;9.586;2023-02-28T00:51:01;2.58;;;1.48;;
66085;SDS011;52868;49.758;9.586;2023-02-28T00:53:27;3.28;;;1.65;;
66085;SDS011;52868;49.758;9.586;2023-02-28T00:55:54;4.93;;;1.75;;
66085;SDS011;52868;49.758;9.586;2023-02-28T00:58:19;2.97;;;1.70;;
66085;SDS011;52868;49.758;9.586;2023-02-28T01:00:45;4.85;;;1.70;;
66085;SDS011;52868;49.758;9.586;2023-02-28T01:03:14;4.25;;;1.80;;
66085;SDS011;52868;49.758;9.586;2023-02-28T01:05:41;2.42;;;1.52;;
66085;SDS011;52868;49.758;9.586;2023-02-28T01:08:07;3.47;;;1.70;;
66085;SDS011;52868;49.758;9.586;2023-02-28T01:10:32;4.93;;;1.73;;
66085;SDS011;52868;49.758;9.586;2023-02-28T01:12:58;2.60;;;1.58;;
66085;SDS011;52868;49.758;9.586;2023-02-28T01:15:24;3.35;;;1.67;;
66085;SDS011;52868;49.758;9.586;2023-02-28T01:17:50;8.30;;;1.88;;
66085;SDS011;52868;49.758;9.586;2023-02-28T01:20:15;2.40;;;1.50;;
66085;SDS011;52868;49.758;9.586;2023-02-28T01:22:41;2.33;;;1.50;;
66085;SDS011;52868;49.758;9.586;2023-02-28T01:25:07;3.65;;;1.67;;
66085;SDS011;52868;49.758;9.586;2023-02-28T01:27:33;3.75;;;1.73;;
66085;SDS011;52868;49.758;9.586;2023-02-28T01:29:59;2.15;;;1.50;;
66085;SDS011;52868;49.758;9.586;2023-02-28T01:32:24;6.15;;;2.25;;
66085;SDS011;52868;49.758;9.586;2023-02-28T01:34:50;3.78;;;2.08;;
66085;SDS011;52868;49.758;9.586;2023-02-28T01:37:15;2.75;;;1.65;;
66085;SDS011;52868;49.758;9.586;2023-02-28T01:39:41;2.92;;;1.85;;
66085;SDS011;52868;49.758;9.586;2023-02-28T01:42:08;4.93;;;1.98;;
66085;SDS011;52868;49.758;9.586;2023-02-28T01:47:32;4.25;;;1.60;;
66085;SDS011;52868;49.758;9.586;2023-02-28T01:50:04;4.90;;;2.08;;
66085;SDS011;52868;49.758;9.586;2023-02-28T01:52:34;2.50;;;1.30;;
66085;SDS011;52868;49.758;9.586;2023-02-28T01:55:01;2.70;;;1.50;;
66085;SDS011;52868;49.758;9.586;2023-02-28T01:57:31;3.38;;;1.50;;
66085;SDS011;52868;49.758;9.586;2023-02-28T02:00:24;3.92;;;1.95;;
66085;SDS011;52868;49.758;9.586;2023-02-28T02:02:51;3.15;;;1.55;;
66085;SDS011;52868;49.758;9.586;2023-02-28T02:05:23;2.80;;;1.80;;
66085;SDS011;52868;49.758;9.586;2023-02-28T02:07:52;4.80;;;2.10;;
66085;SDS011;52868;49.758;9.586;2023-02-28T02:10:29;2.63;;;1.75;;
66085;SDS011;52868;49.758;9.586;2023-02-28T02:21:10;2.25;;;1.60;;
66085;SDS011;52868;49.758;9.586;2023-02-28T02:38:20;3.42;;;1.80;;
66085;SDS011;52868;49.758;9.586;2023-02-28T02:43:38;2.50;;;1.67;;
66085;SDS011;52868;49.758;9.586;2023-02-28T02:46:22;3.47;;;1.95;;
66085;SDS011;52868;49.758;9.586;2023-02-28T02:48:54;2.65;;;1.80;;
66085;SDS011;52868;49.758;9.586;2023-02-28T02:51:23;1.73;;;1.42;;
66085;SDS011;52868;49.758;9.586;2023-02-28T02:53:51;3.35;;;1.95;;
66085;SDS011;52868;49.758;9.586;2023-02-28T02:56:23;2.90;;;1.70;;
66085;SDS011;52868;49.758;9.586;2023-02-28T02:58:53;5.35;;;1.67;;
66085;SDS011;52868;49.758;9.586;2023-02-28T03:01:23;5.20;;;2.67;;
66085;SDS011;52868;49.758;9.586;2023-02-28T03:03:55;3.60;;;1.73;;
66085;SDS011;52868;49.758;9.586;2023-02-28T03:06:41;2.95;;;1.65;;
66085;SDS011;52868;49.758;9.586;2023-02-28T03:09:07;3.10;;;1.58;;
66085;SDS011;52868;49.758;9.586;2023-02-28T03:11:32;3.53;;;1.90;;
66085;SDS011;52868;49.758;9.586;2023-02-28T03:25:04;4.43;;;1.83;;
66085;SDS011;52868;49.758;9.586;2023-02-28T03:27:38;5.82;;;2.10;;
66085;SDS011;52868;49.758;9.586;2023-02-28T03:31:10;5.10;;;2.22;;
66085;SDS011;52868;49.758;9.586;2023-02-28T03:33:18;3.38;;;1.50;;
66085;SDS011;52868;49.758;9.586;2023-02-28T03:36:03;4.50;;;1.75;;
66085;SDS011;52868;49.758;9.586;2023-02-28T03:38:40;1.80;;;1.30;;
66085;SDS011;52868;49.758;9.586;2023-02-28T03:41:16;4.22;;;1.90;;
66085;SDS011;52868;49.758;9.586;2023-02-28T03:43:48;2.67;;;1.70;;
66085;SDS011;52868;49.758;9.586;2023-02-28T03:46:36;3.88;;;1.90;;
66085;SDS011;52868;49.758;9.586;2023-02-28T03:49:20;2.15;;;1.60;;
66085;SDS011;52868;49.758;9.586;2023-02-28T03:51:59;4.93;;;1.83;;
66085;SDS011;52868;49.758;9.586;2023-02-28T03:54:29;3.60;;;1.80;;
66085;SDS011;52868;49.758;9.586;2023-02-28T04:02:43;3.25;;;1.75;;
66085;SDS011;52868;49.758;9.586;2023-02-28T04:05:09;8.15;;;2.03;;
66085;SDS011;52868;49.758;9.586;2023-02-28T04:07:34;3.35;;;1.60;;
66085;SDS011;52868;49.758;9.586;2023-02-28T04:10:00;4.63;;;2.10;;
66085;SDS011;52868;49.758;9.586;2023-02-28T04:12:26;4.25;;;1.88;;
66085;SDS011;52868;49.758;9.586;2023-02-28T04:14:51;5.30;;;2.22;;
66085;SDS011;52868;49.758;9.586;2023-02-28T04:17:17;4.07;;;2.15;;
66085;SDS011;52868;49.758;9.586;2023-02-28T04:19:43;2.60;;;1.95;;
66085;SDS011;52868;49.758;9.586;2023-02-28T04:22:09;3.58;;;1.73;;
66085;SDS011;52868;49.758;9.586;2023-02-28T04:24:35;4.25;;;1.92;;
66085;SDS011;52868;49.758;9.586;2023-02-28T04:27:01;6.22;;;1.98;;
66085;SDS011;52868;49.758;9.586;2023-02-28T04:29:28;2.45;;;1.88;;
66085;SDS011;52868;49.758;9.586;2023-02-28T04:31:57;3.35;;;2.10;;
66085;SDS011;52868;49.758;9.586;2023-02-28T04:34:24;2.88;;;1.90;;
66085;SDS011;52868;49.758;9.586;2023-02-28T04:36:51;4.53;;;2.25;;
66085;SDS011;52868;49.758;9.586;2023-02-28T04:39:19;3.25;;;1.85;;
66085;SDS011;52868;49.758;9.586;2023-02-28T04:41:46;4.10;;;2.05;;
66085;SDS011;52868;49.758;9.586;2023-02-28T04:44:12;2.90;;;1.92;;
66085;SDS011;52868;49.758;9.586;2023-02-28T04:46:38;7.78;;;2.58;;
66085;SDS011;52868;49.758;9.586;2023-02-28T04:49:03;10.82;;;2.15;;
66085;SDS011;52868;49.758;9.586;2023-02-28T04:51:29;4.18;;;1.88;;
66085;SDS011;52868;49.758;9.586;2023-02-28T04:53:55;3.67;;;1.90;;
66085;SDS011;52868;49.758;9.586;2023-02-28T04:56:21;4.90;;;1.95;;
66085;SDS011;52868;49.758;9.586;2023-02-28T04:58:47;4.70;;;2.20;;
66085;SDS011;52868;49.758;9.586;2023-02-28T05:01:17;5.75;;;2.00;;
66085;SDS011;52868;49.758;9.586;2023-02-28T05:03:43;3.83;;;1.95;;
66085;SDS011;52868;49.758;9.586;2023-02-28T05:06:09;4.20;;;1.75;;
66085;SDS011;52868;49.758;9.586;2023-02-28T05:08:36;9.55;;;2.65;;
66085;SDS011;52868;49.758;9.586;2023-02-28T05:11:02;3.50;;;2.20;;
66085;SDS011;52868;49.758;9.586;2023-02-28T05:13:29;5.63;;;2.28;;
66085;SDS011;52868;49.758;9.586;2023-02-28T05:15:55;4.70;;;2.08;;
66085;SDS011;52868;49.758;9.586;2023-02-28T05:18:21;7.15;;;2.05;;
66085;SDS011;52868;49.758;9.586;2023-02-28T05:20:47;5.00;;;2.08;;
66085;SDS011;52868;49.758;9.586;2023-02-28T05:23:14;11.15;;;2.95;;
66085;SDS011;52868;49.758;9.586;2023-02-28T05:25:41;2.40;;;1.58;;
66085;SDS011;52868;49.758;9.586;2023-02-28T05:28:06;3.55;;;1.70;;
66085;SDS011;52868;49.758;9.586;2023-02-28T05:30:32;4.75;;;1.80;;
66085;SDS011;52868;49.758;9.586;2023-02-28T05:32:59;4.07;;;1.75;;
66085;SDS011;52868;49.758;9.586;2023-02-28T05:35:25;3.47;;;1.90;;
66085;SDS011;52868;49.758;9.586;2023-02-28T05:37:51;3.92;;;2.00;;
66085;SDS011;52868;49.758;9.586;2023-02-28T05:40:17;4.72;;;2.15;;
66085;SDS011;52868;49.758;9.586;2023-02-28T05:42:44;6.10;;;2.10;;
66085;SDS011;52868;49.758;9.586;2023-02-28T05:45:10;2.83;;;1.73;;
66085;SDS011;52868;49.758;9.586;2023-02-28T05:47:36;3.25;;;1.80;;
66085;SDS011;52868;49.758;9.586;2023-02-28T05:50:02;13.50;;;4.35;;
66085;SDS011;52868;49.758;9.586;2023-02-28T05:52:28;11.10;;;3.67;;
66085;SDS011;52868;49.758;9.586;2023-02-28T05:54:57;3.80;;;2.30;;
66085;SDS011;52868;49.758;9.586;2023-02-28T05:57:23;4.85;;;2.03;;
66085;SDS011;52868;49.758;9.586;2023-02-28T05:59:49;3.60;;;2.30;;
66085;SDS011;52868;49.758;9.586;2023-02-28T06:02:15;4.70;;;2.50;;
66085;SDS011;52868;49.758;9.586;2023-02-28T06:04:42;5.70;;;2.17;;
66085;SDS011;52868;49.758;9.586;2023-02-28T06:07:08;1.95;;;1.50;;
66085;SDS011;52868;49.758;9.586;2023-02-28T06:09:34;7.57;;;2.25;;
66085;SDS011;52868;49.758;9.586;2023-02-28T06:12:01;4.93;;;2.35;;
66085;SDS011;52868;49.758;9.586;2023-02-28T06:14:30;3.85;;;2.08;;
66085;SDS011;52868;49.758;9.586;2023-02-28T06:16:57;6.88;;;2.15;;
66085;SDS011;52868;49.758;9.586;2023-02-28T06:19:24;3.63;;;1.77;;
66085;SDS011;52868;49.758;9.586;2023-02-28T06:21:52;3.92;;;1.70;;
66085;SDS011;52868;49.758;9.586;2023-02-28T06:24:19;6.63;;;2.70;;
66085;SDS011;52868;49.758;9.586;2023-02-28T06:26:46;11.65;;;3.53;;
66085;SDS011;52868;49.758;9.586;2023-02-28T06:29:13;6.10;;;2.10;;
66085;SDS011;52868;49.758;9.586;2023-02-28T06:31:41;5.22;;;2.10;;
66085;SDS011;52868;49.758;9.586;2023-02-28T06:34:08;3.30;;;1.88;;
66085;SDS011;52868;49.758;9.586;2023-02-28T06:36:36;8.40;;;2.45;;
66085;SDS011;52868;49.758;9.586;2023-02-28T06:39:03;4.78;;;2.33;;
66085;SDS011;52868;49.758;9.586;2023-02-28T06:41:29;4.05;;;2.30;;
66085;SDS011;52868;49.758;9.586;2023-02-28T06:43:54;6.97;;;2.92;;
66085;SDS011;52868;49.758;9.586;2023-02-28T06:46:20;3.75;;;2.13;;
66085;SDS011;52868;49.758;9.586;2023-02-28T06:48:46;9.48;;;3.28;;
66085;SDS011;52868;49.758;9.586;2023-02-28T06:51:16;5.25;;;2.28;;
66085;SDS011;52868;49.758;9.586;2023-02-28T06:53:45;4.45;;;1.98;;
66085;SDS011;52868;49.758;9.586;2023-02-28T06:56:12;5.18;;;2.55;;
66085;SDS011;52868;49.758;9.586;2023-02-28T06:58:39;5.57;;;2.63;;
66085;SDS011;52868;49.758;9.586;2023-02-28T07:01:06;6.10;;;2.78;;
66085;SDS011;52868;49.758;9.586;2023-02-28T07:03:35;5.43;;;2.00;;
66085;SDS011;52868;49.758;9.586;2023-02-28T07:06:01;7.85;;;3.35;;
66085;SDS011;52868;49.758;9.586;2023-02-28T07:08:29;10.20;;;4.00;;
66085;SDS011;52868;49.758;9.586;2023-02-28T07:10:55;5.80;;;3.28;;
66085;SDS011;52868;49.758;9.586;2023-02-28T07:13:21;6.32;;;3.90;;
66085;SDS011;52868;49.758;9.586;2023-02-28T07:15:58;6.93;;;2.90;;
66085;SDS011;52868;49.758;9.586;2023-02-28T07:18:26;5.93;;;2.17;;
66085;SDS011;52868;49.758;9.586;2023-02-28T07:20:52;4.50;;;2.40;;
66085;SDS011;52868;49.758;9.586;2023-02-28T07:23:18;4.43;;;2.10;;
66085;SDS011;52868;49.758;9.586;2023-02-28T07:25:44;6.32;;;2.50;;
66085;SDS011;52868;49.758;9.586;2023-02-28T07:28:10;4.13;;;2.58;;
66085;SDS011;52868;49.758;9.586;2023-02-28T07:30:36;4.82;;;2.42;;
66085;SDS011;52868;49.758;9.586;2023-02-28T07:33:02;5.30;;;2.50;;
66085;SDS011;52868;49.758;9.586;2023-02-28T07:35:29;8.23;;;3.00;;
66085;SDS011;52868;49.758;9.586;2023-02-28T07:37:56;6.30;;;3.03;;
66085;SDS011;52868;49.758;9.586;2023-02-28T07:40:22;7.38;;;3.33;;
66085;SDS011;52868;49.758;9.586;2023-02-28T07:42:48;8.68;;;3.30;;
66085;SDS011;52868;49.758;9.586;2023-02-28T07:45:14;8.07;;;2.53;;
66085;SDS011;52868;49.758;9.586;2023-02-28T07:47:40;6.80;;;2.42;;
66085;SDS011;52868;49.758;9.586;2023-02-28T07:50:07;5.30;;;2.85;;
66085;SDS011;52868;49.758;9.586;2023-02-28T07:52:36;7.07;;;3.10;;
66085;SDS011;52868;49.758;9.586;2023-02-28T07:55:02;5.35;;;2.85;;
66085;SDS011;52868;49.758;9.586;2023-02-28T07:57:27;3.72;;;2.00;;
66085;SDS011;52868;49.758;9.586;2023-02-28T07:59:53;5.13;;;2.75;;
66085;SDS011;52868;49.758;9.586;2023-02-28T08:02:18;6.55;;;3.25;;
66085;SDS011;52868;49.758;9.586;2023-02-28T08:04:44;7.40;;;2.88;;
66085;SDS011;52868;49.758;9.586;2023-02-28T08:07:12;5.55;;;2.83;;
66085;SDS011;52868;49.758;9.586;2023-02-28T08:09:41;5.80;;;2.58;;
66085;SDS011;52868;49.758;9.586;2023-02-28T08:12:08;9.15;;;3.97;;
66085;SDS011;52868;49.758;9.586;2023-02-28T08:14:35;5.68;;;2.80;;
66085;SDS011;52868;49.758;9.586;2023-02-28T08:17:00;4.57;;;2.33;;
66085;SDS011;52868;49.758;9.586;2023-02-28T08:19:26;8.27;;;2.75;;
66085;SDS011;52868;49.758;9.586;2023-02-28T08:21:52;6.30;;;2.25;;
66085;SDS011;52868;49.758;9.586;2023-02-28T08:24:17;6.38;;;2.97;;
66085;SDS011;52868;49.758;9.586;2023-02-28T08:26:43;5.18;;;2.50;;
66085;SDS011;52868;49.758;9.586;2023-02-28T08:29:09;4.35;;;2.20;;
66085;SDS011;52868;49.758;9.586;2023-02-28T08:31:35;5.50;;;2.60;;
66085;SDS011;52868;49.758;9.586;2023-02-28T08:34:11;5.65;;;2.72;;
66085;SDS011;52868;49.758;9.586;2023-02-28T08:36:38;5.75;;;2.75;;
66085;SDS011;52868;49.758;9.586;2023-02-28T08:39:04;5.88;;;2.80;;
66085;SDS011;52868;49.758;9.586;2023-02-28T08:41:31;8.20;;;3.28;;
66085;SDS011;52868;49.758;9.586;2023-02-28T08:43:56;8.02;;;3.53;;
66085;SDS011;52868;49.758;9.586;2023-02-28T08:46:22;7.55;;;2.30;;
66085;SDS011;52868;49.758;9.586;2023-02-28T08:48:51;5.90;;;2.70;;
66085;SDS011;52868;49.758;9.586;2023-02-28T08:51:18;4.10;;;2.08;;
66085;SDS011;52868;49.758;9.586;2023-02-28T08:53:50;6.43;;;2.60;;
66085;SDS011;52868;49.758;9.586;2023-02-28T08:56:21;6.20;;;3.03;;
66085;SDS011;52868;49.758;9.586;2023-02-28T08:58:47;8.60;;;2.90;;
66085;SDS011;52868;49.758;9.586;2023-02-28T09:01:18;6.72;;;2.92;;
66085;SDS011;52868;49.758;9.586;2023-02-28T09:03:46;7.00;;;3.20;;
66085;SDS011;52868;49.758;9.586;2023-02-28T09:06:13;7.53;;;3.22;;
66085;SDS011;52868;49.758;9.586;2023-02-28T09:08:39;6.60;;;2.30;;
66085;SDS011;52868;49.758;9.586;2023-02-28T09:11:05;6.25;;;2.63;;
66085;SDS011;52868;49.758;9.586;2023-02-28T09:13:31;6.32;;;2.45;;
66085;SDS011;52868;49.758;9.586;2023-02-28T09:15:58;6.57;;;2.70;;
66085;SDS011;52868;49.758;9.586;2023-02-28T09:18:25;6.50;;;3.28;;
66085;SDS011;52868;49.758;9.586;2023-02-28T09:20:51;16.63;;;3.20;;
66085;SDS011;52868;49.758;9.586;2023-02-28T09:23:17;5.95;;;3.30;;
66085;SDS011;52868;49.758;9.586;2023-02-28T09:25:47;5.63;;;2.50;;
66085;SDS011;52868;49.758;9.586;2023-02-28T09:28:15;6.95;;;2.85;;
66085;SDS011;52868;49.758;9.586;2023-02-28T09:30:41;7.68;;;3.25;;
66085;SDS011;52868;49.758;9.586;2023-02-28T09:33:09;6.60;;;3.03;;
66085;SDS011;52868;49.758;9.586;2023-02-28T09:35:35;5.53;;;2.33;;
66085;SDS011;52868;49.758;9.586;2023-02-28T09:38:02;7.22;;;3.00;;
66085;SDS011;52868;49.758;9.586;2023-02-28T09:40:28;6.95;;;2.42;;
66085;SDS011;52868;49.758;9.586;2023-02-28T09:42:55;6.18;;;2.97;;
66085;SDS011;52868;49.758;9.586;2023-02-28T09:45:24;6.50;;;2.95;;
66085;SDS011;52868;49.758;9.586;2023-02-28T09:47:59;3.50;;;2.13;;
66085;SDS011;52868;49.758;9.586;2023-02-28T09:50:36;7.18;;;3.03;;
66085;SDS011;52868;49.758;9.586;2023-02-28T09:53:13;8.40;;;2.75;;
66085;SDS011;52868;49.758;9.586;2023-02-28T09:55:50;6.88;;;2.72;;
66085;SDS011;52868;49.758;9.586;2023-02-28T09:58:28;6.63;;;2.83;;
66085;SDS011;52868;49.758;9.586;2023-02-28T10:01:21;8.48;;;2.88;;
66085;SDS011;52868;49.758;9.586;2023-02-28T10:04:00;5.40;;;2.83;;
66085;SDS011;52868;49.758;9.586;2023-02-28T10:06:56;10.57;;;4.10;;
66085;SDS011;52868;49.758;9.586;2023-02-28T10:09:26;7.70;;;2.78;;
66085;SDS011;52868;49.758;9.586;2023-02-28T10:11:56;8.38;;;3.28;;
66085;SDS011;52868;49.758;9.586;2023-02-28T10:14:28;7.65;;;3.10;;
66085;SDS011;52868;49.758;9.586;2023-02-28T10:16:56;9.35;;;3.22;;
66085;SDS011;52868;49.758;9.586;2023-02-28T10:19:33;4.82;;;2.97;;
66085;SDS011;52868;49.758;9.586;2023-02-28T10:22:11;7.03;;;3.00;;
66085;SDS011;52868;49.758;9.586;2023-02-28T10:24:47;6.93;;;3.30;;
66085;SDS011;52868;49.758;9.586;2023-02-28T10:27:20;8.02;;;3.17;;
66085;SDS011;52868;49.758;9.586;2023-02-28T10:29:48;6.10;;;3.10;;
66085;SDS011;52868;49.758;9.586;2023-02-28T10:32:20;7.50;;;3.38;;
66085;SDS011;52868;49.758;9.586;2023-02-28T10:34:51;9.70;;;3.47;;
66085;SDS011;52868;49.758;9.586;2023-02-28T10:37:21;6.95;;;3.20;;
66085;SDS011;52868;49.758;9.586;2023-02-28T10:39:47;5.30;;;2.97;;
66085;SDS011;52868;49.758;9.586;2023-02-28T10:42:26;8.38;;;2.70;;
66085;SDS011;52868;49.758;9.586;2023-02-28T10:45:16;5.13;;;2.28;;
66085;SDS011;52868;49.758;9.586;2023-02-28T10:47:53;7.28;;;3.25;;
66085;SDS011;52868;49.758;9.586;2023-02-28T11:01:24;9.07;;;4.00;;
66085;SDS011;52868;49.758;9.586;2023-02-28T11:03:59;9.38;;;2.83;;
66085;SDS011;52868;49.758;9.586;2023-02-28T11:06:26;9.63;;;3.40;;
66085;SDS011;52868;49.758;9.586;2023-02-28T11:09:22;6.90;;;3.35;;
66085;SDS011;52868;49.758;9.586;2023-02-28T11:14:19;6.75;;;2.97;;
66085;SDS011;52868;49.758;9.586;2023-02-28T11:16:48;8.57;;;3.67;;
66085;SDS011;52868;49.758;9.586;2023-02-28T11:19:28;7.90;;;3.05;;
66085;SDS011;52868;49.758;9.586;2023-02-28T11:22:05;10.05;;;3.03;;
66085;SDS011;52868;49.758;9.586;2023-02-28T11:24:33;6.50;;;3.08;;
66085;SDS011;52868;49.758;9.586;2023-02-28T11:27:14;7.32;;;3.35;;
66085;SDS011;52868;49.758;9.586;2023-02-28T11:29:55;5.93;;;2.63;;
66085;SDS011;52868;49.758;9.586;2023-02-28T11:32:22;8.02;;;3.28;;
66085;SDS011;52868;49.758;9.586;2023-02-28T11:35:10;12.15;;;3.65;;
66085;SDS011;52868;49.758;9.586;2023-02-28T11:37:47;7.15;;;3.60;;
66085;SDS011;52868;49.758;9.586;2023-02-28T11:40:21;8.52;;;3.30;;
66085;SDS011;52868;49.758;9.586;2023-02-28T11:43:01;9.30;;;3.65;;
66085;SDS011;52868;49.758;9.586;2023-02-28T11:46:06;9.07;;;3.00;;
66085;SDS011;52868;49.758;9.586;2023-02-28T11:57:16;7.05;;;3.42;;
66085;SDS011;52868;49.758;9.586;2023-02-28T11:59:49;11.00;;;3.28;;
66085;SDS011;52868;49.758;9.586;2023-02-28T12:02:41;5.60;;;3.03;;
66085;SDS011;52868;49.758;9.586;2023-02-28T12:05:29;7.00;;;3.40;;
66085;SDS011;52868;49.758;9.586;2023-02-28T12:08:06;13.10;;;3.65;;
66085;SDS011;52868;49.758;9.586;2023-02-28T12:11:23;7.93;;;3.25;;
66085;SDS011;52868;49.758;9.586;2023-02-28T12:19:08;8.93;;;3.67;;
66085;SDS011;52868;49.758;9.586;2023-02-28T12:27:28;7.82;;;3.42;;
66085;SDS011;52868;49.758;9.586;2023-02-28T12:29:58;10.40;;;4.18;;
66085;SDS011;52868;49.758;9.586;2023-02-28T12:32:36;8.30;;;3.35;;
66085;SDS011;52868;49.758;9.586;2023-02-28T12:37:50;8.32;;;2.90;;
66085;SDS011;52868;49.758;9.586;2023-02-28T12:40:45;10.95;;;3.50;;
66085;SDS011;52868;49.758;9.586;2023-02-28T12:43:16;10.13;;;3.95;;
66085;SDS011;52868;49.758;9.586;2023-02-28T12:45:48;11.57;;;4.55;;
66085;SDS011;52868;49.758;9.586;2023-02-28T12:48:25;9.07;;;4.30;;
66085;SDS011;52868;49.758;9.586;2023-02-28T12:51:07;10.05;;;4.32;;
66085;SDS011;52868;49.758;9.586;2023-02-28T12:56:12;8.85;;;3.08;;
66085;SDS011;52868;49.758;9.586;2023-02-28T12:58:45;5.35;;;3.08;;
66085;SDS011;52868;49.758;9.586;2023-02-28T13:09:59;10.25;;;3.70;;
66085;SDS011;52868;49.758;9.586;2023-02-28T13:12:27;10.27;;;3.30;;
66085;SDS011;52868;49.758;9.586;2023-02-28T13:17:53;5.32;;;2.65;;
66085;SDS011;52868;49.758;9.586;2023-02-28T13:20:23;9.63;;;3.63;;
66085;SDS011;52868;49.758;9.586;2023-02-28T13:26:00;9.35;;;3.38;;
66085;SDS011;52868;49.758;9.586;2023-02-28T13:31:24;5.35;;;2.58;;
66085;SDS011;52868;49.758;9.586;2023-02-28T13:36:27;9.35;;;3.25;;
66085;SDS011;52868;49.758;9.586;2023-02-28T13:52:32;6.53;;;3.00;;
66085;SDS011;52868;49.758;9.586;2023-02-28T13:54:58;8.02;;;2.85;;
66085;SDS011;52868;49.758;9.586;2023-02-28T13:58:36;6.88;;;3.30;;
66085;SDS011;52868;49.758;9.586;2023-02-28T14:01:16;8.25;;;3.45;;
66085;SDS011;52868;49.758;9.586;2023-02-28T14:06:37;9.45;;;4.28;;
66085;SDS011;52868;49.758;9.586;2023-02-28T14:11:57;9.98;;;3.78;;
66085;SDS011;52868;49.758;9.586;2023-02-28T14:17:12;9.10;;;2.67;;
66085;SDS011;52868;49.758;9.586;2023-02-28T14:19:41;7.30;;;3.22;;
66085;SDS011;52868;49.758;9.586;2023-02-28T14:33:42;4.97;;;2.60;;
66085;SDS011;52868;49.758;9.586;2023-02-28T14:39:07;9.60;;;3.60;;
66085;SDS011;52868;49.758;9.586;2023-02-28T14:41:40;9.15;;;3.28;;
66085;SDS011;52868;49.758;9.586;2023-02-28T14:46:50;11.25;;;5.13;;
66085;SDS011;52868;49.758;9.586;2023-02-28T14:49:26;8.13;;;3.72;;
66085;SDS011;52868;49.758;9.586;2023-02-28T14:54:55;5.43;;;2.92;;
66085;SDS011;52868;49.758;9.586;2023-02-28T14:57:27;8.68;;;3.47;;
66085;SDS011;52868;49.758;9.586;2023-02-28T15:00:07;7.45;;;3.60;;
66085;SDS011;52868;49.758;9.586;2023-02-28T15:02:40;7.88;;;4.10;;
66085;SDS011;52868;49.758;9.586;2023-02-28T15:07:38;17.48;;;4.05;;
66085;SDS011;52868;49.758;9.586;2023-02-28T15:10:08;7.55;;;3.38;;
66085;SDS011;52868;49.758;9.586;2023-02-28T15:12:36;13.27;;;3.20;;
66085;SDS011;52868;49.758;9.586;2023-02-28T15:15:05;11.25;;;3.00;;
66085;SDS011;52868;49.758;9.586;2023-02-28T15:17:39;9.00;;;3.67;;
66085;SDS011;52868;49.758;9.586;2023-02-28T15:20:05;6.93;;;3.40;;
66085;SDS011;52868;49.758;9.586;2023-02-28T15:22:36;7.93;;;2.90;;
66085;SDS011;52868;49.758;9.586;2023-02-28T15:25:03;7.38;;;2.88;;
66085;SDS011;52868;49.758;9.586;2023-02-28T15:27:32;9.48;;;4.10;;
66085;SDS011;52868;49.758;9.586;2023-02-28T15:29:59;15.20;;;6.32;;
66085;SDS011;52868;49.758;9.586;2023-02-28T15:32:37;7.65;;;3.25;;
66085;SDS011;52868;49.758;9.586;2023-02-28T15:37:54;7.32;;;3.22;;
66085;SDS011;52868;49.758;9.586;2023-02-28T15:48:52;6.25;;;3.22;;
66085;SDS011;52868;49.758;9.586;2023-02-28T15:51:24;8.20;;;3.50;;
66085;SDS011;52868;49.758;9.586;2023-02-28T15:54:02;6.30;;;3.40;;
66085;SDS011;52868;49.758;9.586;2023-02-28T15:56:33;6.45;;;3.10;;
66085;SDS011;52868;49.758;9.586;2023-02-28T15:59:07;10.75;;;3.88;;
66085;SDS011;52868;49.758;9.586;2023-02-28T16:01:42;8.57;;;4.13;;
66085;SDS011;52868;49.758;9.586;2023-02-28T16:06:43;15.98;;;4.07;;
66085;SDS011;52868;49.758;9.586;2023-02-28T16:09:14;7.85;;;3.05;;
66085;SDS011;52868;49.758;9.586;2023-02-28T16:11:41;7.97;;;3.13;;
66085;SDS011;52868;49.758;9.586;2023-02-28T16:14:13;9.60;;;4.57;;
66085;SDS011;52868;49.758;9.586;2023-02-28T16:16:45;9.38;;;3.75;;
66085;SDS011;52868;49.758;9.586;2023-02-28T16:19:12;13.60;;;3.85;;
66085;SDS011;52868;49.758;9.586;2023-02-28T16:21:38;8.77;;;3.85;;
66085;SDS011;52868;49.758;9.586;2023-02-28T16:24:03;7.18;;;3.25;;
66085;SDS011;52868;49.758;9.586;2023-02-28T16:26:29;9.38;;;3.20;;
66085;SDS011;52868;49.758;9.586;2023-02-28T16:28:55;16.10;;;4.85;;
66085;SDS011;52868;49.758;9.586;2023-02-28T16:31:21;15.63;;;5.43;;
66085;SDS011;52868;49.758;9.586;2023-02-28T16:33:46;14.18;;;5.45;;
66085;SDS011;52868;49.758;9.586;2023-02-28T16:36:17;18.45;;;6.05;;
66085;SDS011;52868;49.758;9.586;2023-02-28T16:38:45;16.73;;;4.55;;
66085;SDS011;52868;49.758;9.586;2023-02-28T16:41:16;7.45;;;3.58;;
66085;SDS011;52868;49.758;9.586;2023-02-28T16:43:47;12.27;;;4.07;;
66085;SDS011;52868;49.758;9.586;2023-02-28T16:46:14;26.45;;;6.80;;
66085;SDS011;52868;49.758;9.586;2023-02-28T16:48:41;35.88;;;11.10;;
66085;SDS011;52868;49.758;9.586;2023-02-28T16:51:11;35.58;;;10.38;;
66085;SDS011;52868;49.758;9.586;2023-02-28T16:53:38;19.45;;;7.22;;
66085;SDS011;52868;49.758;9.586;2023-02-28T16:56:03;36.05;;;12.63;;
66085;SDS011;52868;49.758;9.586;2023-02-28T16:58:31;27.02;;;10.75;;
66085;SDS011;52868;49.758;9.586;2023-02-28T17:01:00;26.97;;;7.80;;
66085;SDS011;52868;49.758;9.586;2023-02-28T17:03:27;12.50;;;5.18;;
66085;SDS011;52868;49.758;9.586;2023-02-28T17:05:54;20.25;;;6.55;;
66085;SDS011;52868;49.758;9.586;2023-02-28T17:08:20;26.08;;;8.27;;
66085;SDS011;52868;49.758;9.586;2023-02-28T17:10:46;15.52;;;5.85;;
66085;SDS011;52868;49.758;9.586;2023-02-28T17:13:11;14.02;;;5.35;;
66085;SDS011;52868;49.758;9.586;2023-02-28T17:15:37;11.25;;;4.38;;
66085;SDS011;52868;49.758;9.586;2023-02-28T17:18:04;11.77;;;4.03;;
66085;SDS011;52868;49.758;9.586;2023-02-28T17:20:30;8.50;;;3.97;;
66085;SDS011;52868;49.758;9.586;2023-02-28T17:22:55;10.90;;;4.10;;
66085;SDS011;52868;49.758;9.586;2023-02-28T17:25:21;19.40;;;6.32;;
66085;SDS011;52868;49.758;9.586;2023-02-28T17:27:48;13.75;;;5.15;;
66085;SDS011;52868;49.758;9.586;2023-02-28T17:30:14;11.95;;;4.30;;
66085;SDS011;52868;49.758;9.586;2023-02-28T17:32:41;13.98;;;4.53;;
66085;SDS011;52868;49.758;9.586;2023-02-28T17:35:07;19.90;;;7.80;;
66085;SDS011;52868;49.758;9.586;2023-02-28T17:37:33;10.73;;;4.97;;
66085;SDS011;52868;49.758;9.586;2023-02-28T17:39:59;12.73;;;5.35;;
66085;SDS011;52868;49.758;9.586;2023-02-28T17:42:25;25.52;;;10.25;;
66085;SDS011;52868;49.758;9.586;2023-02-28T17:44:50;12.43;;;6.05;;